createdAt,value
2018-10-12T00:00:05.532Z,949.71
2018-10-12T00:01:05.525Z,949.74
2018-10-12T00:02:05.521Z,949.75
2018-10-12T00:03:05.517Z,949.78
2018-10-12T00:04:05.513Z,949.82
2018-10-12T00:05:05.516Z,949.83
2018-10-12T00:06:05.506Z,949.83
2018-10-12T00:07:05.496Z,949.83
2018-10-12T00:08:05.533Z,949.82
2018-10-12T00:09:05.492Z,949.84
2018-10-12T00:10:05.491Z,949.86
2018-10-12T00:11:05.479Z,949.86
2018-10-12T00:12:05.476Z,949.89
2018-10-12T00:13:05.474Z,949.90
2018-10-12T00:14:05.472Z,949.96
2018-10-12T00:15:05.461Z,949.95
2018-10-12T00:16:05.460Z,950.02
2018-10-12T00:17:05.460Z,950.03
2018-10-12T00:18:05.451Z,950.12
2018-10-12T00:19:05.445Z,950.13
2018-10-12T00:20:05.444Z,950.15
2018-10-12T00:21:05.438Z,950.18
2018-10-12T00:22:05.433Z,950.18
2018-10-12T00:23:05.431Z,950.20
2018-10-12T00:24:05.427Z,950.23
2018-10-12T00:25:05.428Z,950.20
2018-10-12T00:26:05.416Z,950.26
2018-10-12T00:27:05.414Z,950.27
2018-10-12T00:28:05.407Z,950.28
2018-10-12T00:29:05.406Z,950.26
2018-10-12T00:30:05.397Z,950.27
2018-10-12T00:31:05.409Z,950.27
2018-10-12T00:32:05.388Z,950.29
2018-10-12T00:33:05.384Z,950.31
2018-10-12T00:34:05.380Z,950.34
2018-10-12T00:35:05.374Z,950.33
2018-10-12T00:36:05.378Z,950.32
2018-10-12T00:37:05.370Z,950.35
2018-10-12T00:38:05.365Z,950.35
2018-10-12T00:39:05.360Z,950.33
2018-10-12T00:40:05.355Z,950.32
2018-10-12T00:41:05.352Z,950.37
2018-10-12T00:42:05.345Z,950.36
2018-10-12T00:43:05.341Z,950.32
2018-10-12T00:44:05.336Z,950.36
2018-10-12T00:45:05.329Z,950.36
2018-10-12T00:46:05.331Z,950.35
2018-10-12T00:47:05.322Z,950.34
2018-10-12T00:48:05.318Z,950.33
2018-10-12T00:49:05.313Z,950.34
2018-10-12T00:50:05.312Z,950.35
2018-10-12T00:51:05.305Z,950.33
2018-10-12T00:52:05.301Z,950.37
2018-10-12T00:53:05.335Z,950.39
2018-10-12T00:54:05.316Z,950.39
2018-10-12T00:55:05.288Z,950.38
2018-10-12T00:56:05.285Z,950.38
2018-10-12T00:57:05.283Z,950.38
2018-10-12T00:58:05.280Z,950.37
2018-10-12T00:59:05.273Z,950.38
2018-10-12T01:00:05.268Z,950.38
2018-10-12T01:01:05.261Z,950.38
2018-10-12T01:02:05.292Z,950.38
2018-10-12T01:03:05.256Z,950.36
2018-10-12T01:04:05.250Z,950.38
2018-10-12T01:05:05.244Z,950.35
2018-10-12T01:06:05.241Z,950.40
2018-10-12T01:07:05.237Z,950.43
2018-10-12T01:08:05.233Z,950.42
2018-10-12T01:09:05.229Z,950.41
2018-10-12T01:10:05.222Z,950.42
2018-10-12T01:11:05.219Z,950.41
2018-10-12T01:12:05.262Z,950.44
2018-10-12T01:13:05.216Z,950.45
2018-10-12T01:14:05.209Z,950.45
2018-10-12T01:15:05.203Z,950.45
2018-10-12T01:16:05.199Z,950.43
2018-10-12T01:17:05.194Z,950.48
2018-10-12T01:18:05.196Z,950.47
2018-10-12T01:19:05.191Z,950.51
2018-10-12T01:20:05.179Z,950.50
2018-10-12T01:21:05.178Z,950.57
2018-10-12T01:22:05.172Z,950.60
2018-10-12T01:23:05.170Z,950.56
2018-10-12T01:24:05.164Z,950.56
2018-10-12T01:25:05.161Z,950.55
2018-10-12T01:26:05.154Z,950.58
2018-10-12T01:27:05.150Z,950.54
2018-10-12T01:28:05.147Z,950.55
2018-10-12T01:29:05.142Z,950.56
2018-10-12T02:11:45.809Z,950.63
2018-10-12T02:12:45.781Z,950.65
2018-10-12T02:14:38.714Z,950.63
2018-10-12T02:15:38.686Z,950.65
2018-10-12T02:17:31.662Z,950.72
2018-10-12T02:18:31.643Z,950.74
2018-10-12T02:20:24.640Z,950.82
2018-10-12T02:21:24.603Z,950.77
2018-10-12T02:23:17.572Z,950.78
2018-10-12T02:24:17.562Z,950.86
2018-10-12T02:26:10.638Z,950.88
2018-10-12T02:27:10.622Z,950.85
2018-10-12T02:29:03.593Z,950.92
2018-10-12T02:30:03.578Z,950.91
2018-10-12T02:31:56.481Z,950.93
2018-10-12T02:32:56.462Z,950.94
2018-10-12T02:34:49.408Z,950.95
2018-10-12T02:35:49.384Z,950.98
2018-10-12T02:37:42.447Z,950.97
2018-10-12T02:38:42.434Z,951.03
2018-10-12T02:40:35.354Z,951.08
2018-10-12T02:41:35.331Z,951.08
2018-10-12T02:43:28.350Z,951.05
2018-10-12T02:44:28.344Z,951.07
2018-10-12T02:46:21.368Z,951.03
2018-10-12T02:47:21.343Z,951.02
2018-10-12T02:49:14.321Z,951.04
2018-10-12T02:50:14.299Z,951.04
2018-10-12T02:52:07.286Z,951.10
2018-10-12T02:53:07.274Z,951.12
2018-10-12T02:55:00.250Z,951.19
2018-10-12T02:56:00.226Z,951.20
2018-10-12T02:57:00.228Z,951.20
2018-10-12T02:58:00.219Z,951.22
2018-10-12T02:59:00.226Z,951.17
2018-10-12T03:00:00.210Z,951.21
2018-10-12T03:01:00.206Z,951.21
2018-10-12T03:02:00.202Z,951.25
2018-10-12T03:03:00.197Z,951.26
2018-10-12T03:04:00.191Z,951.30
2018-10-12T03:05:00.191Z,951.38
2018-10-12T03:06:00.183Z,951.36
2018-10-12T03:07:00.183Z,951.38
2018-10-12T03:08:00.176Z,951.36
2018-10-12T03:09:00.170Z,951.37
2018-10-12T03:10:00.168Z,951.36
2018-10-12T03:11:00.164Z,951.38
2018-10-12T03:12:00.157Z,951.41
2018-10-12T03:13:00.152Z,951.41
2018-10-12T03:14:00.147Z,951.46
2018-10-12T03:15:00.143Z,951.45
2018-10-12T03:16:00.139Z,951.46
2018-10-12T03:17:00.134Z,951.45
2018-10-12T03:18:00.130Z,951.45
2018-10-12T03:19:00.131Z,951.49
2018-10-12T03:20:00.123Z,951.53
2018-10-12T03:21:00.119Z,951.49
2018-10-12T03:22:00.111Z,951.52
2018-10-12T03:23:00.117Z,951.49
2018-10-12T03:24:00.104Z,951.49
2018-10-12T03:25:00.097Z,951.52
2018-10-12T03:26:00.097Z,951.46
2018-10-12T03:27:00.092Z,951.45
2018-10-12T03:28:00.086Z,951.49
2018-10-12T03:29:00.082Z,951.47
2018-10-12T03:30:00.081Z,951.45
2018-10-12T03:31:00.076Z,951.47
2018-10-12T03:32:00.068Z,951.48
2018-10-12T03:33:00.064Z,951.48
2018-10-12T03:34:00.062Z,951.46
2018-10-12T03:35:00.070Z,951.48
2018-10-12T03:36:00.056Z,951.45
2018-10-12T03:37:00.047Z,951.50
2018-10-12T03:38:00.040Z,951.48
2018-10-12T03:39:00.038Z,951.50
2018-10-12T03:40:00.033Z,951.48
2018-10-12T03:41:00.026Z,951.48
2018-10-12T03:42:00.049Z,951.46
2018-10-12T03:43:00.019Z,951.50
2018-10-12T03:44:00.016Z,951.46
2018-10-12T03:45:00.017Z,951.54
2018-10-12T03:46:00.007Z,951.54
2018-10-12T03:47:00.001Z,951.58
2018-10-12T03:47:59.997Z,951.64
2018-10-12T03:48:59.996Z,951.67
2018-10-12T03:49:59.992Z,951.69
2018-10-12T03:50:59.987Z,951.69
2018-10-12T03:52:00.008Z,951.74
2018-10-12T03:52:59.975Z,951.72
2018-10-12T03:53:59.975Z,951.73
2018-10-12T03:54:59.966Z,951.72
2018-10-12T03:55:59.962Z,951.70
2018-10-12T03:56:59.958Z,951.72
2018-10-12T03:57:59.952Z,951.70
2018-10-12T03:58:59.948Z,951.75
2018-10-12T03:59:59.943Z,951.73
2018-10-12T04:00:59.940Z,951.78
2018-10-12T04:01:59.933Z,951.82
2018-10-12T04:02:59.930Z,951.84
2018-10-12T04:03:59.926Z,951.85
2018-10-12T04:04:59.921Z,951.85
2018-10-12T04:05:59.921Z,951.86
2018-10-12T04:06:59.914Z,951.88
2018-10-12T04:07:59.909Z,951.86
2018-10-12T04:08:59.905Z,951.86
2018-10-12T04:09:59.904Z,951.88
2018-10-12T04:10:59.896Z,951.88
2018-10-12T04:11:59.893Z,951.88
2018-10-12T04:12:59.888Z,951.92
2018-10-12T04:13:59.883Z,951.91
2018-10-12T04:14:59.880Z,951.94
2018-10-12T04:15:59.875Z,951.93
2018-10-12T04:16:59.874Z,951.92
2018-10-12T04:17:59.866Z,951.95
2018-10-12T04:18:59.862Z,951.96
2018-10-12T04:19:59.864Z,951.94
2018-10-12T04:20:59.854Z,951.96
2018-10-12T04:21:59.848Z,951.95
2018-10-12T04:22:59.845Z,951.90
2018-10-12T04:23:59.841Z,951.94
2018-10-12T04:24:59.834Z,951.96
2018-10-12T04:25:59.876Z,951.94
2018-10-12T04:26:59.827Z,951.95
2018-10-12T04:27:59.828Z,951.97
2018-10-12T04:28:59.820Z,952.02
2018-10-12T04:29:59.816Z,952.02
2018-10-12T04:30:59.810Z,952.04
2018-10-12T04:31:59.803Z,952.04
2018-10-12T04:32:59.806Z,952.06
2018-10-12T04:33:59.792Z,952.07
2018-10-12T04:34:59.793Z,952.07
2018-10-12T04:35:59.786Z,952.07
2018-10-12T04:36:59.789Z,952.09
2018-10-12T04:37:59.779Z,952.12
2018-10-12T04:38:59.773Z,952.11
2018-10-12T04:39:59.766Z,952.13
2018-10-12T04:40:59.768Z,952.14
2018-10-12T04:41:59.761Z,952.14
2018-10-12T04:42:59.761Z,952.14
2018-10-12T04:43:59.749Z,952.11
2018-10-12T04:44:59.749Z,952.13
2018-10-12T04:45:59.740Z,952.14
2018-10-12T04:46:59.734Z,952.20
2018-10-12T04:47:59.734Z,952.22
2018-10-12T04:48:59.731Z,952.22
2018-10-12T04:49:59.737Z,952.23
2018-10-12T04:50:59.720Z,952.23
2018-10-12T04:51:59.719Z,952.24
2018-10-12T04:52:59.713Z,952.25
2018-10-12T04:53:59.772Z,952.26
2018-10-12T04:54:59.703Z,952.29
2018-10-12T04:55:59.699Z,952.29
2018-10-12T04:56:59.709Z,952.31
2018-10-12T04:57:59.690Z,952.36
2018-10-12T04:58:59.690Z,952.31
2018-10-12T04:59:59.682Z,952.37
2018-10-12T05:00:59.723Z,952.35
2018-10-12T05:01:59.674Z,952.35
2018-10-12T05:02:59.668Z,952.37
2018-10-12T05:03:59.661Z,952.35
2018-10-12T05:04:59.659Z,952.33
2018-10-12T05:05:59.657Z,952.38
2018-10-12T05:06:59.651Z,952.38
2018-10-12T05:07:59.647Z,952.36
2018-10-12T05:08:59.643Z,952.38
2018-10-12T05:09:59.637Z,952.41
2018-10-12T05:10:59.625Z,952.41
2018-10-12T05:11:59.626Z,952.41
2018-10-12T05:12:59.625Z,952.43
2018-10-12T05:13:59.618Z,952.41
2018-10-12T05:14:59.616Z,952.41
2018-10-12T05:15:59.610Z,952.44
2018-10-12T05:16:59.604Z,952.45
2018-10-12T05:17:59.664Z,952.43
2018-10-12T05:18:59.609Z,952.45
2018-10-12T05:19:59.596Z,952.46
2018-10-12T05:20:59.586Z,952.48
2018-10-12T05:21:59.616Z,952.47
2018-10-12T05:22:59.580Z,952.49
2018-10-12T05:23:59.575Z,952.48
2018-10-12T05:24:59.634Z,952.46
2018-10-12T05:25:59.567Z,952.48
2018-10-12T05:26:59.563Z,952.48
2018-10-12T05:27:59.556Z,952.50
2018-10-12T05:28:59.580Z,952.52
2018-10-12T05:29:59.559Z,952.55
2018-10-12T05:30:59.545Z,952.55
2018-10-12T05:31:59.541Z,952.56
2018-10-12T05:32:59.551Z,952.57
2018-10-12T05:33:59.529Z,952.57
2018-10-12T05:34:59.525Z,952.58
2018-10-12T05:35:59.557Z,952.57
2018-10-12T05:36:59.520Z,952.58
2018-10-12T05:37:59.531Z,952.60
2018-10-12T05:38:59.507Z,952.60
2018-10-12T05:39:59.503Z,952.58
2018-10-12T05:40:59.503Z,952.58
2018-10-12T05:41:59.485Z,952.61
2018-10-12T05:42:59.529Z,952.59
2018-10-12T05:43:59.486Z,952.63
2018-10-12T05:44:59.483Z,952.64
2018-10-12T05:45:59.502Z,952.66
2018-10-12T05:46:59.474Z,952.66
2018-10-12T05:47:59.467Z,952.71
2018-10-12T05:48:59.485Z,952.73
2018-10-12T05:49:59.473Z,952.73
2018-10-12T05:50:59.454Z,952.75
2018-10-12T05:51:59.450Z,952.76
2018-10-12T05:52:59.447Z,952.78
2018-10-12T05:53:59.444Z,952.79
2018-10-12T05:54:59.438Z,952.78
2018-10-12T05:55:59.438Z,952.78
2018-10-12T05:56:59.432Z,952.80
2018-10-12T05:57:59.425Z,952.79
2018-10-12T05:58:59.419Z,952.83
2018-10-12T05:59:59.419Z,952.81
2018-10-12T06:00:59.408Z,952.84
2018-10-12T06:01:59.411Z,952.83
2018-10-12T06:02:59.408Z,952.83
2018-10-12T06:03:59.405Z,952.88
2018-10-12T06:04:59.397Z,952.88
2018-10-12T06:05:59.393Z,952.88
2018-10-12T06:06:59.389Z,952.88
2018-10-12T06:07:59.388Z,952.91
2018-10-12T06:08:59.390Z,952.91
2018-10-12T06:09:59.440Z,952.90
2018-10-12T06:10:59.378Z,952.93
2018-10-12T06:11:59.372Z,952.89
2018-10-12T06:12:59.386Z,952.94
2018-10-12T06:13:59.362Z,952.93
2018-10-12T06:14:59.358Z,952.96
2018-10-12T06:15:59.388Z,952.99
2018-10-12T06:16:59.353Z,952.97
2018-10-12T06:17:59.354Z,953.01
2018-10-12T06:18:59.347Z,953.03
2018-10-12T06:19:59.343Z,953.05
2018-10-12T06:20:59.336Z,953.10
2018-10-12T06:21:59.334Z,953.14
2018-10-12T06:22:59.330Z,953.15
2018-10-12T06:23:59.337Z,953.20
2018-10-12T06:24:59.331Z,953.24
2018-10-12T06:25:59.322Z,953.23
2018-10-12T06:26:59.425Z,953.26
2018-10-12T06:27:59.318Z,953.32
2018-10-12T06:28:59.317Z,953.31
2018-10-12T06:29:59.309Z,953.31
2018-10-12T06:30:59.308Z,953.30
2018-10-12T06:31:59.304Z,953.38
2018-10-12T06:32:59.368Z,953.34
2018-10-12T06:33:59.300Z,953.38
2018-10-12T06:34:59.299Z,953.40
2018-10-12T06:35:59.296Z,953.40
2018-10-12T06:36:59.294Z,953.40
2018-10-12T06:37:59.291Z,953.42
2018-10-12T06:38:59.288Z,953.38
2018-10-12T06:39:59.287Z,953.41
2018-10-12T06:40:59.330Z,953.43
2018-10-12T06:41:59.285Z,953.44
2018-10-12T06:42:59.282Z,953.47
2018-10-12T06:43:59.283Z,953.51
2018-10-12T06:44:59.280Z,953.50
2018-10-12T06:45:59.278Z,953.52
2018-10-12T06:46:59.278Z,953.53
2018-10-12T06:47:59.283Z,953.57
2018-10-12T06:48:59.279Z,953.55
2018-10-12T06:49:59.279Z,953.57
2018-10-12T06:50:59.272Z,953.58
2018-10-12T06:51:59.277Z,953.64
2018-10-12T06:52:59.279Z,953.63
2018-10-12T06:53:59.368Z,953.61
2018-10-12T06:54:59.280Z,953.67
2018-10-12T06:55:59.282Z,953.67
2018-10-12T06:56:59.287Z,953.69
2018-10-12T06:57:59.281Z,953.73
2018-10-12T06:58:59.282Z,953.71
2018-10-12T06:59:59.325Z,953.72
2018-10-12T07:00:59.290Z,953.77
2018-10-12T07:01:59.290Z,953.76
2018-10-12T07:02:59.289Z,953.79
2018-10-12T07:03:59.293Z,953.84
2018-10-12T07:04:59.295Z,953.84
2018-10-12T07:05:59.295Z,953.85
2018-10-12T07:06:59.300Z,953.85
2018-10-12T07:07:59.302Z,953.89
2018-10-12T07:08:59.304Z,953.92
2018-10-12T07:09:59.304Z,953.95
2018-10-12T07:10:59.307Z,953.95
2018-10-12T07:11:59.310Z,953.98
2018-10-12T07:12:59.315Z,953.93
2018-10-12T07:13:59.415Z,953.97
2018-10-12T07:14:59.320Z,953.91
2018-10-12T07:15:59.326Z,953.95
2018-10-12T07:16:59.327Z,953.91
2018-10-12T07:17:59.329Z,953.92
2018-10-12T07:18:59.334Z,953.93
2018-10-12T07:19:59.337Z,953.95
2018-10-12T07:20:59.798Z,953.93
2018-10-12T07:21:59.345Z,953.96
2018-10-12T07:22:59.350Z,953.97
2018-10-12T07:23:59.354Z,954.00
2018-10-12T07:24:59.374Z,954.02
2018-10-12T07:25:59.431Z,954.05
2018-10-12T07:26:59.369Z,954.05
2018-10-12T07:27:59.372Z,954.08
2018-10-12T07:28:59.379Z,954.10
2018-10-12T07:29:59.377Z,954.14
2018-10-12T07:30:59.389Z,954.11
2018-10-12T07:31:59.394Z,954.11
2018-10-12T07:32:59.400Z,954.10
2018-10-12T07:33:59.402Z,954.13
2018-10-12T07:34:59.409Z,954.08
2018-10-12T07:35:59.421Z,954.10
2018-10-12T07:36:59.428Z,954.11
2018-10-12T07:37:59.429Z,954.16
2018-10-12T07:38:59.434Z,954.16
2018-10-12T07:39:59.440Z,954.10
2018-10-12T07:40:59.451Z,954.09
2018-10-12T07:41:59.451Z,954.09
2018-10-12T07:42:59.456Z,954.08
2018-10-12T07:43:59.463Z,954.11
2018-10-12T07:44:59.474Z,954.12
2018-10-12T07:45:59.473Z,954.16
2018-10-12T07:46:59.480Z,954.14
2018-10-12T07:47:59.544Z,954.16
2018-10-12T07:48:59.494Z,954.19
2018-10-12T07:49:59.499Z,954.20
2018-10-12T07:50:59.508Z,954.22
2018-10-12T07:51:59.510Z,954.23
2018-10-12T07:52:59.522Z,954.27
2018-10-12T07:53:59.523Z,954.22
2018-10-12T07:54:59.536Z,954.28
2018-10-12T07:55:59.539Z,954.28
2018-10-12T07:56:59.544Z,954.28
2018-10-12T07:57:59.551Z,954.28
2018-10-12T07:58:59.556Z,954.32
2018-10-12T07:59:59.594Z,954.31
2018-10-12T08:00:59.571Z,954.34
2018-10-12T08:01:59.577Z,954.35
2018-10-12T08:02:59.582Z,954.38
2018-10-12T08:03:59.588Z,954.40
2018-10-12T08:04:59.595Z,954.36
2018-10-12T08:05:59.600Z,954.38
2018-10-12T08:06:59.608Z,954.40
2018-10-12T08:07:59.616Z,954.38
2018-10-12T08:08:59.621Z,954.33
2018-10-12T08:09:59.625Z,954.38
2018-10-12T08:10:59.632Z,954.37
2018-10-12T08:11:59.639Z,954.35
2018-10-12T08:12:59.644Z,954.39
2018-10-12T08:13:59.744Z,954.41
2018-10-12T08:14:59.718Z,954.41
2018-10-12T08:15:59.668Z,954.46
2018-10-12T08:16:59.676Z,954.46
2018-10-12T08:17:59.679Z,954.48
2018-10-12T08:18:59.683Z,954.51
2018-10-12T08:19:59.692Z,954.54
2018-10-12T08:20:59.696Z,954.54
2018-10-12T08:21:59.704Z,954.50
2018-10-12T08:22:59.723Z,954.53
2018-10-12T08:23:59.717Z,954.58
2018-10-12T08:24:59.726Z,954.52
2018-10-12T08:25:59.728Z,954.51
2018-10-12T08:26:59.783Z,954.52
2018-10-12T08:27:59.741Z,954.52
2018-10-12T08:28:59.753Z,954.49
2018-10-12T08:29:59.755Z,954.49
2018-10-12T08:30:59.775Z,954.47
2018-10-12T08:31:59.769Z,954.49
2018-10-12T08:32:59.797Z,954.51
2018-10-12T08:33:59.780Z,954.47
2018-10-12T08:34:59.783Z,954.48
2018-10-12T08:35:59.793Z,954.53
2018-10-12T08:36:59.804Z,954.52
2018-10-12T08:37:59.810Z,954.51
2018-10-12T08:38:59.818Z,954.57
2018-10-12T08:39:59.830Z,954.56
2018-10-12T08:40:59.834Z,954.60
2018-10-12T08:41:59.838Z,954.59
2018-10-12T08:42:59.847Z,954.60
2018-10-12T08:43:59.854Z,954.57
2018-10-12T08:44:59.862Z,954.60
2018-10-12T08:45:59.868Z,954.64
2018-10-12T08:46:59.875Z,954.55
2018-10-12T08:47:59.890Z,954.58
2018-10-12T08:48:59.888Z,954.55
2018-10-12T08:49:59.894Z,954.54
2018-10-12T08:50:59.903Z,954.58
2018-10-12T08:51:59.909Z,954.58
2018-10-12T08:52:59.922Z,954.56
2018-10-12T08:53:59.924Z,954.56
2018-10-12T08:54:59.931Z,954.60
2018-10-12T08:55:59.947Z,954.60
2018-10-12T08:56:59.969Z,954.60
2018-10-12T08:57:59.956Z,954.59
2018-10-12T08:58:59.963Z,954.58
2018-10-12T08:59:59.973Z,954.60
2018-10-12T09:00:59.985Z,954.63
2018-10-12T09:01:59.986Z,954.63
2018-10-12T09:03:00.057Z,954.65
2018-10-12T09:04:00.003Z,954.64
2018-10-12T09:05:00.013Z,954.66
2018-10-12T09:06:00.021Z,954.63
2018-10-12T09:07:00.029Z,954.65
2018-10-12T09:08:00.036Z,954.66
2018-10-12T09:09:00.054Z,954.63
2018-10-12T09:10:00.130Z,954.60
2018-10-12T09:11:00.065Z,954.61
2018-10-12T09:12:00.070Z,954.59
2018-10-12T09:13:00.080Z,954.60
2018-10-12T09:14:00.080Z,954.62
2018-10-12T09:15:00.096Z,954.57
2018-10-12T09:16:00.101Z,954.57
2018-10-12T09:17:00.111Z,954.56
2018-10-12T09:18:00.117Z,954.51
2018-10-12T09:19:00.127Z,954.58
2018-10-12T09:20:00.131Z,954.52
2018-10-12T09:21:00.140Z,954.54
2018-10-12T09:22:00.152Z,954.55
2018-10-12T09:23:00.155Z,954.54
2018-10-12T09:24:00.165Z,954.56
2018-10-12T09:25:00.174Z,954.56
2018-10-12T09:26:00.179Z,954.58
2018-10-12T09:27:00.185Z,954.55
2018-10-12T09:28:00.195Z,954.56
2018-10-12T09:29:00.206Z,954.48
2018-10-12T09:30:00.208Z,954.44
2018-10-12T09:31:00.222Z,954.49
2018-10-12T09:32:00.224Z,954.46
2018-10-12T09:33:00.238Z,954.44
2018-10-12T09:34:00.251Z,954.44
2018-10-12T09:35:00.254Z,954.50
2018-10-12T09:36:00.258Z,954.50
2018-10-12T09:37:00.343Z,954.49
2018-10-12T09:38:00.275Z,954.45
2018-10-12T09:39:00.284Z,954.48
2018-10-12T09:40:00.293Z,954.52
2018-10-12T09:41:00.301Z,954.54
2018-10-12T09:42:00.313Z,954.55
2018-10-12T09:43:00.316Z,954.53
2018-10-12T09:44:00.325Z,954.54
2018-10-12T09:45:00.334Z,954.55
2018-10-12T09:46:00.346Z,954.56
2018-10-12T09:47:00.351Z,954.56
2018-10-12T09:48:00.356Z,954.56
2018-10-12T09:49:00.375Z,954.53
2018-10-12T09:50:00.377Z,954.53
2018-10-12T09:51:00.382Z,954.50
2018-10-12T09:52:00.394Z,954.51
2018-10-12T09:53:00.403Z,954.48
2018-10-12T09:54:00.407Z,954.51
2018-10-12T09:55:00.420Z,954.47
2018-10-12T09:56:00.478Z,954.45
2018-10-12T09:57:00.438Z,954.50
2018-10-12T09:58:00.444Z,954.53
2018-10-12T09:59:00.453Z,954.54
2018-10-12T10:00:00.463Z,954.53
2018-10-12T10:01:00.480Z,954.50
2018-10-12T10:02:00.642Z,954.53
2018-10-12T10:03:01.251Z,954.47
2018-10-12T10:04:00.497Z,954.44
2018-10-12T10:05:00.507Z,954.43
2018-10-12T10:06:00.514Z,954.39
2018-10-12T10:07:00.526Z,954.36
2018-10-12T10:08:00.617Z,954.36
2018-10-12T10:09:00.551Z,954.34
2018-10-12T10:10:00.555Z,954.36
2018-10-12T10:11:00.564Z,954.29
2018-10-12T10:12:00.585Z,954.26
2018-10-12T10:13:00.581Z,954.26
2018-10-12T10:14:00.701Z,954.28
2018-10-12T10:15:00.600Z,954.28
2018-10-12T10:16:00.612Z,954.28
2018-10-12T10:17:00.628Z,954.31
2018-10-12T10:18:00.654Z,954.33
2018-10-12T10:19:00.642Z,954.32
2018-10-12T10:20:00.647Z,954.33
2018-10-12T10:21:00.657Z,954.33
2018-10-12T10:22:00.670Z,954.31
2018-10-12T10:23:00.680Z,954.35
2018-10-12T10:24:00.686Z,954.31
2018-10-12T10:25:00.732Z,954.31
2018-10-12T10:26:00.704Z,954.32
2018-10-12T10:27:00.719Z,954.27
2018-10-12T10:28:00.727Z,954.27
2018-10-12T10:29:00.751Z,954.26
2018-10-12T10:30:00.749Z,954.23
2018-10-12T10:31:00.760Z,954.23
2018-10-12T10:32:00.780Z,954.22
2018-10-12T10:33:00.780Z,954.18
2018-10-12T10:34:00.795Z,954.24
2018-10-12T10:35:00.802Z,954.20
2018-10-12T10:36:00.809Z,954.22
2018-10-12T10:37:00.822Z,954.22
2018-10-12T10:38:00.833Z,954.19
2018-10-12T10:39:00.871Z,954.22
2018-10-12T10:40:00.850Z,954.14
2018-10-12T10:41:00.859Z,954.16
2018-10-12T10:42:00.869Z,954.13
2018-10-12T10:43:00.886Z,954.15
2018-10-12T10:44:00.892Z,954.16
2018-10-12T10:45:00.900Z,954.15
2018-10-12T10:46:00.931Z,954.14
2018-10-12T10:47:00.919Z,954.11
2018-10-12T10:48:00.933Z,954.11
2018-10-12T10:49:00.940Z,954.12
2018-10-12T10:50:00.949Z,954.08
2018-10-12T10:51:00.959Z,954.12
2018-10-12T10:52:00.969Z,954.10
2018-10-12T10:53:01.025Z,954.08
2018-10-12T10:54:00.986Z,954.07
2018-10-12T10:55:01.581Z,954.09
2018-10-12T10:56:01.007Z,954.03
2018-10-12T10:57:01.030Z,953.97
2018-10-12T10:58:01.031Z,953.96
2018-10-12T10:59:01.039Z,953.89
2018-10-12T11:00:01.049Z,953.86
2018-10-12T11:01:01.110Z,953.87
2018-10-12T11:02:01.083Z,953.89
2018-10-12T11:03:01.110Z,953.88
2018-10-12T11:04:01.092Z,953.94
2018-10-12T11:05:01.099Z,953.94
2018-10-12T11:06:01.115Z,953.92
2018-10-12T11:07:01.122Z,953.93
2018-10-12T11:08:01.129Z,953.93
2018-10-12T11:09:01.145Z,953.92
2018-10-12T11:10:01.152Z,953.92
2018-10-12T11:11:01.162Z,953.95
2018-10-12T11:12:01.175Z,953.94
2018-10-12T11:13:01.241Z,953.94
2018-10-12T11:14:01.195Z,953.92
2018-10-12T11:15:01.201Z,953.91
2018-10-12T11:16:01.220Z,953.93
2018-10-12T11:17:01.224Z,953.88
2018-10-12T11:18:01.231Z,953.88
2018-10-12T11:19:01.243Z,953.87
2018-10-12T11:20:01.264Z,953.84
2018-10-12T11:21:01.264Z,953.88
2018-10-12T11:22:01.273Z,953.83
2018-10-12T11:23:01.285Z,953.84
2018-10-12T11:24:01.294Z,953.85
2018-10-12T11:25:01.311Z,953.80
2018-10-12T11:26:01.316Z,953.79
2018-10-12T11:27:01.327Z,953.78
2018-10-12T11:28:01.344Z,953.78
2018-10-12T11:29:01.343Z,953.75
2018-10-12T11:30:01.351Z,953.74
2018-10-12T11:31:01.364Z,953.72
2018-10-12T11:32:01.373Z,953.72
2018-10-12T11:33:01.453Z,953.71
2018-10-12T11:34:01.394Z,953.70
2018-10-12T11:35:01.408Z,953.71
2018-10-12T11:36:01.415Z,953.75
2018-10-12T11:37:01.429Z,953.73
2018-10-12T11:38:01.429Z,953.70
2018-10-12T11:39:01.444Z,953.67
2018-10-12T11:40:01.466Z,953.72
2018-10-12T11:41:01.460Z,953.69
2018-10-12T11:42:01.471Z,953.69
2018-10-12T11:43:01.481Z,953.68
2018-10-12T11:44:01.492Z,953.66
2018-10-12T11:45:01.565Z,953.66
2018-10-12T11:46:01.511Z,953.65
2018-10-12T11:47:01.521Z,953.62
2018-10-12T11:48:01.533Z,953.61
2018-10-12T11:49:01.541Z,953.58
2018-10-12T11:50:01.547Z,953.57
2018-10-12T11:51:01.561Z,953.60
2018-10-12T11:52:01.570Z,953.59
2018-10-12T11:53:01.577Z,953.56
2018-10-12T11:54:01.597Z,953.57
2018-10-12T11:55:01.597Z,953.55
2018-10-12T11:56:01.605Z,953.54
2018-10-12T11:57:01.616Z,953.55
2018-10-12T11:58:01.624Z,953.55
2018-10-12T11:59:01.635Z,953.51
2018-10-12T12:00:01.651Z,953.52
2018-10-12T12:01:01.722Z,953.51
2018-10-12T12:02:01.683Z,953.51
2018-10-12T12:03:01.672Z,953.43
2018-10-12T12:04:01.683Z,953.44
2018-10-12T12:05:01.695Z,953.40
2018-10-12T12:06:01.714Z,953.39
2018-10-12T12:07:01.708Z,953.36
2018-10-12T12:08:01.718Z,953.34
2018-10-12T12:09:01.726Z,953.35
2018-10-12T12:10:01.734Z,953.30
2018-10-12T12:11:01.749Z,953.32
2018-10-12T12:12:01.754Z,953.32
2018-10-12T12:13:01.762Z,953.33
2018-10-12T12:14:01.925Z,953.29
2018-10-12T12:15:01.779Z,953.27
2018-10-12T12:16:01.786Z,953.23
2018-10-12T12:17:01.797Z,953.20
2018-10-12T12:18:01.805Z,953.15
2018-10-12T12:19:01.811Z,953.19
2018-10-12T12:20:01.817Z,953.13
2018-10-12T12:21:01.824Z,953.12
2018-10-12T12:22:01.832Z,953.11
2018-10-12T12:23:01.835Z,953.08
2018-10-12T12:24:01.844Z,953.12
2018-10-12T12:25:01.847Z,953.10
2018-10-12T12:26:01.853Z,953.10
2018-10-12T12:27:01.866Z,953.06
2018-10-12T12:28:01.863Z,953.11
2018-10-12T12:29:01.868Z,953.07
2018-10-12T12:30:01.886Z,953.08
2018-10-12T12:31:01.877Z,953.06
2018-10-12T12:32:01.881Z,953.04
2018-10-12T12:33:01.885Z,953.03
2018-10-12T12:34:01.888Z,953.02
2018-10-12T12:35:02.087Z,953.05
2018-10-12T12:36:02.077Z,953.03
2018-10-12T12:37:01.902Z,952.99
2018-10-12T12:38:01.900Z,953.00
2018-10-12T12:39:01.906Z,953.00
2018-10-12T12:40:01.906Z,952.94
2018-10-12T12:41:01.907Z,952.99
2018-10-12T12:42:01.907Z,953.00
2018-10-12T12:43:01.911Z,952.98
2018-10-12T12:44:01.913Z,952.98
2018-10-12T12:45:01.921Z,953.01
2018-10-12T12:46:01.921Z,953.02
2018-10-12T12:47:01.956Z,953.00
2018-10-12T12:48:02.047Z,952.97
2018-10-12T12:49:02.236Z,952.99
2018-10-12T12:50:01.942Z,952.97
2018-10-12T12:51:01.924Z,953.00
2018-10-12T12:52:01.925Z,952.95
2018-10-12T12:53:01.928Z,952.94
2018-10-12T12:54:01.930Z,952.95
2018-10-12T12:55:01.934Z,952.93
2018-10-12T12:56:01.930Z,952.90
2018-10-12T12:57:01.930Z,952.91
2018-10-12T12:58:01.934Z,952.89
2018-10-12T12:59:01.936Z,952.88
2018-10-12T13:00:01.999Z,952.87
2018-10-12T13:01:01.943Z,952.85
2018-10-12T13:02:01.934Z,952.87
2018-10-12T13:03:01.937Z,952.90
2018-10-12T13:04:01.936Z,952.90
2018-10-12T13:05:01.941Z,952.87
2018-10-12T13:06:01.942Z,952.93
2018-10-12T13:07:01.939Z,952.93
2018-10-12T13:08:01.942Z,952.93
2018-10-12T13:09:01.948Z,952.94
2018-10-12T13:10:01.944Z,952.94
2018-10-12T13:11:01.940Z,952.94
2018-10-12T13:12:01.941Z,952.92
2018-10-12T13:13:01.942Z,952.89
2018-10-12T13:14:01.941Z,952.92
2018-10-12T13:15:01.940Z,952.95
2018-10-12T13:16:01.941Z,952.94
2018-10-12T13:17:01.942Z,952.97
2018-10-12T13:18:01.959Z,952.96
2018-10-12T13:19:01.946Z,952.96
2018-10-12T13:20:01.952Z,953.02
2018-10-12T13:21:01.946Z,952.96
2018-10-12T13:22:01.942Z,953.00
2018-10-12T13:23:01.945Z,952.98